createdAt,value
2022-11-05T00:00:36.453Z,11.13
2022-11-05T00:03:24.013Z,10.63
2022-11-05T00:06:12.790Z,11.60
2022-11-05T00:08:59.825Z,13.03
2022-11-05T00:11:42.111Z,12.67
2022-11-05T00:14:28.030Z,11.60
2022-11-05T00:16:56.415Z,11.27
2022-11-05T00:19:26.118Z,9.97
2022-11-05T00:22:12.075Z,10.90
2022-11-05T00:24:58.255Z,10.63
2022-11-05T00:27:26.931Z,9.90
2022-11-05T00:29:55.463Z,10.07
2022-11-05T00:32:24.129Z,12.07
2022-11-05T00:34:53.608Z,10.73
2022-11-05T00:37:22.207Z,10.13
2022-11-05T00:39:50.639Z,10.13
2022-11-05T00:42:36.858Z,10.67
2022-11-05T00:45:05.721Z,10.07
2022-11-05T00:47:52.296Z,10.93
2022-11-05T00:50:23.194Z,9.57
2022-11-05T00:52:59.684Z,9.23
2022-11-05T00:55:38.134Z,8.00
2022-11-05T00:58:07.974Z,8.73
2022-11-05T01:00:38.095Z,9.83
2022-11-05T01:03:10.606Z,8.37
2022-11-05T01:05:43.384Z,8.93
2022-11-05T01:08:12.228Z,9.07
2022-11-05T01:10:44.373Z,9.50
2022-11-05T01:13:13.739Z,9.23
2022-11-05T01:15:42.606Z,8.67
2022-11-05T01:18:11.592Z,7.73
2022-11-05T01:20:41.468Z,9.07
2022-11-05T01:23:13.467Z,8.53
2022-11-05T01:25:42.374Z,8.40
2022-11-05T01:28:11.750Z,9.00
2022-11-05T01:30:40.414Z,9.23
2022-11-05T01:33:09.321Z,9.33
2022-11-05T01:35:38.034Z,8.87
2022-11-05T01:38:08.268Z,8.73
2022-11-05T01:40:36.765Z,8.03
2022-11-05T01:43:05.211Z,10.47
2022-11-05T01:45:33.638Z,9.67
2022-11-05T01:48:09.100Z,9.00
2022-11-05T01:50:47.504Z,9.60
2022-11-05T01:53:23.385Z,8.47
2022-11-05T01:55:59.621Z,9.57
2022-11-05T01:58:34.179Z,7.77
2022-11-05T02:01:03.061Z,8.57
2022-11-05T02:03:31.895Z,7.93
2022-11-05T02:06:03.296Z,9.70
2022-11-05T02:08:46.697Z,8.50
2022-11-05T02:11:16.930Z,8.20
2022-11-05T02:13:45.443Z,9.57
2022-11-05T02:16:25.357Z,7.87
2022-11-05T02:19:00.185Z,9.03
2022-11-05T02:21:58.811Z,9.07
2022-11-05T02:24:56.030Z,8.37
2022-11-05T02:27:55.974Z,8.47
2022-11-05T02:30:55.389Z,9.47
2022-11-05T02:33:37.659Z,10.23
2022-11-05T02:36:20.294Z,9.50
2022-11-05T02:38:58.243Z,9.07
2022-11-05T02:41:29.788Z,9.87
2022-11-05T02:44:06.360Z,9.10
2022-11-05T02:46:39.475Z,8.73
2022-11-05T02:49:21.576Z,8.43
2022-11-05T02:51:53.640Z,8.67
2022-11-05T02:54:28.324Z,8.53
2022-11-05T02:56:57.821Z,8.30
2022-11-05T02:59:26.274Z,9.50
2022-11-05T03:01:56.882Z,10.17
2022-11-05T03:04:27.219Z,8.73
2022-11-05T03:07:03.269Z,8.17
2022-11-05T03:09:42.858Z,9.87
2022-11-05T03:12:17.059Z,8.47
2022-11-05T03:14:52.222Z,8.90
2022-11-05T03:17:30.884Z,8.80
2022-11-05T03:20:06.018Z,9.70
2022-11-05T03:22:41.434Z,9.90
2022-11-05T03:25:14.146Z,10.37
2022-11-05T03:27:46.227Z,11.33
2022-11-05T03:30:18.050Z,11.43
2022-11-05T03:32:52.079Z,11.20
2022-11-05T03:35:21.691Z,11.73
2022-11-05T03:37:52.654Z,11.67
2022-11-05T03:40:23.805Z,11.27
2022-11-05T03:42:54.752Z,10.57
2022-11-05T03:45:32.715Z,10.13
2022-11-05T03:48:03.771Z,9.33
2022-11-05T03:50:40.926Z,10.70
2022-11-05T03:53:15.623Z,9.73
2022-11-05T03:55:48.992Z,9.37
2022-11-05T03:58:19.808Z,9.30
2022-11-05T04:00:49.295Z,10.13
2022-11-05T04:03:19.166Z,9.17
2022-11-05T04:06:08.831Z,9.30
2022-11-05T04:08:54.819Z,9.00
2022-11-05T04:11:41.047Z,8.00
2022-11-05T04:14:09.805Z,10.27
2022-11-05T04:16:56.306Z,8.20
2022-11-05T04:19:39.976Z,9.20
2022-11-05T04:22:25.955Z,8.70
2022-11-05T04:24:54.568Z,9.40
2022-11-05T04:27:23.114Z,8.87
2022-11-05T04:30:09.176Z,8.40
2022-11-05T04:32:38.545Z,8.40
2022-11-05T04:35:08.990Z,8.40
2022-11-05T04:37:37.677Z,8.77
2022-11-05T04:40:06.612Z,7.63
2022-11-05T04:42:35.174Z,7.50
2022-11-05T04:45:04.114Z,8.40
2022-11-05T04:47:32.872Z,8.23
2022-11-05T04:50:01.790Z,7.87
2022-11-05T04:52:31.711Z,8.63
2022-11-05T04:55:00.370Z,7.90
2022-11-05T04:57:28.779Z,8.87
2022-11-05T04:59:57.355Z,7.83
2022-11-05T05:02:25.789Z,8.53
2022-11-05T05:04:54.525Z,8.17
2022-11-05T05:07:23.060Z,9.47
2022-11-05T05:09:52.544Z,7.37
2022-11-05T05:12:22.124Z,8.47
2022-11-05T05:14:51.202Z,9.40
2022-11-05T05:17:19.801Z,8.53
2022-11-05T05:20:05.971Z,9.60
2022-11-05T05:22:34.510Z,7.93
2022-11-05T05:25:04.705Z,8.57
2022-11-05T05:27:33.395Z,8.30
2022-11-05T05:30:02.179Z,9.47
2022-11-05T05:32:31.122Z,7.27
2022-11-05T05:34:59.595Z,7.93
2022-11-05T05:37:28.216Z,8.80
2022-11-05T05:39:56.633Z,9.10
2022-11-05T05:42:26.786Z,10.60
2022-11-05T05:44:55.199Z,8.93
2022-11-05T05:47:23.578Z,9.67
2022-11-05T05:49:52.204Z,9.20
2022-11-05T05:52:20.592Z,7.33
2022-11-05T05:54:49.309Z,8.03
2022-11-05T05:57:17.717Z,7.63
2022-11-05T05:59:47.832Z,7.97
2022-11-05T06:02:16.360Z,7.50
2022-11-05T06:04:45.118Z,7.10
2022-11-05T06:07:13.923Z,6.63
2022-11-05T06:09:42.458Z,6.93
2022-11-05T06:12:11.253Z,7.20
2022-11-05T06:14:39.722Z,6.23
2022-11-05T06:17:10.000Z,7.03
2022-11-05T06:19:38.598Z,6.63
2022-11-05T06:22:07.140Z,6.77
2022-11-05T06:24:35.771Z,7.17
2022-11-05T06:27:04.348Z,6.93
2022-11-05T06:29:33.291Z,8.13
2022-11-05T06:32:01.896Z,7.03
2022-11-05T06:34:32.929Z,8.47
2022-11-05T06:37:02.171Z,8.33
2022-11-05T06:39:30.923Z,9.07
2022-11-05T06:44:48.617Z,7.40
2022-11-05T06:47:17.406Z,8.77
2022-11-05T06:49:48.090Z,7.83
2022-11-05T06:52:16.864Z,6.97
2022-11-05T06:54:45.970Z,9.03
2022-11-05T06:57:14.837Z,7.43
2022-11-05T06:59:43.973Z,8.47
2022-11-05T07:02:20.184Z,9.20
2022-11-05T07:04:50.063Z,8.57
2022-11-05T07:07:18.847Z,8.70
2022-11-05T07:09:47.247Z,8.23
2022-11-05T07:12:16.770Z,10.63
2022-11-05T07:14:45.598Z,9.10
2022-11-05T07:17:14.627Z,9.90
2022-11-05T07:19:43.353Z,9.20
2022-11-05T07:22:14.325Z,11.10
2022-11-05T07:24:45.521Z,9.90
2022-11-05T07:27:16.724Z,9.77
2022-11-05T07:29:46.550Z,10.83
2022-11-05T07:32:16.250Z,12.40
2022-11-05T07:34:44.931Z,12.17
2022-11-05T07:37:17.036Z,11.57
2022-11-05T07:39:45.864Z,12.33
2022-11-05T07:42:15.597Z,11.80
2022-11-05T07:44:44.257Z,11.37
2022-11-05T07:47:16.133Z,13.17
2022-11-05T07:49:44.579Z,12.07
2022-11-05T07:52:13.293Z,11.03
2022-11-05T07:54:43.241Z,12.53
2022-11-05T07:57:12.501Z,12.00
2022-11-05T07:59:41.010Z,12.27
2022-11-05T08:02:11.649Z,15.13
2022-11-05T08:04:42.629Z,15.47
2022-11-05T08:07:11.249Z,13.20
2022-11-05T08:09:39.664Z,12.70
2022-11-05T08:12:10.813Z,13.30
2022-11-05T08:14:39.379Z,13.53
2022-11-05T08:17:07.854Z,15.10
2022-11-05T08:19:36.601Z,13.73
2022-11-05T08:22:05.077Z,14.57
2022-11-05T08:24:33.544Z,14.03
2022-11-05T08:27:02.539Z,14.57
2022-11-05T08:29:32.320Z,15.20
2022-11-05T08:32:01.096Z,14.27
2022-11-05T08:34:29.780Z,14.30
2022-11-05T08:36:58.364Z,14.07
2022-11-05T08:39:27.111Z,14.30
2022-11-05T08:41:55.544Z,14.40
2022-11-05T08:44:24.317Z,14.00
2022-11-05T08:46:54.483Z,13.30
2022-11-05T08:49:23.868Z,14.63
2022-11-05T08:51:52.317Z,14.10
2022-11-05T08:54:20.705Z,13.43
2022-11-05T08:56:49.511Z,14.60
2022-11-05T08:59:18.044Z,14.43
2022-11-05T09:01:47.314Z,15.70
2022-11-05T09:04:17.010Z,16.47
2022-11-05T09:06:45.645Z,18.27
2022-11-05T09:09:14.180Z,19.40
2022-11-05T09:12:10.606Z,18.90
2022-11-05T09:14:32.368Z,15.13
2022-11-05T09:17:01.174Z,15.97
2022-11-05T09:19:31.264Z,17.17
2022-11-05T09:21:59.604Z,16.20
2022-11-05T09:24:28.763Z,17.20
2022-11-05T09:26:58.270Z,17.57
2022-11-05T09:29:26.665Z,16.07
2022-11-05T09:31:55.043Z,18.00
2022-11-05T09:34:24.267Z,16.73
2022-11-05T09:36:53.902Z,17.08
2022-11-05T09:39:22.158Z,18.48
2022-11-05T09:41:51.011Z,16.30
2022-11-05T09:44:23.474Z,15.18
2022-11-05T09:46:56.524Z,12.68
2022-11-05T09:49:29.048Z,11.32
2022-11-05T09:52:00.066Z,10.83
2022-11-05T09:54:33.305Z,9.27
2022-11-05T09:57:04.057Z,7.80
2022-11-05T09:59:43.928Z,7.23
2022-11-05T10:02:14.649Z,7.87
2022-11-05T10:04:46.383Z,8.23
2022-11-05T10:07:21.103Z,8.80
2022-11-05T10:09:52.613Z,10.20
2022-11-05T10:12:27.296Z,11.00
2022-11-05T10:15:08.912Z,11.90
2022-11-05T10:17:40.918Z,13.67
2022-11-05T10:20:17.802Z,14.77
2022-11-05T10:22:49.722Z,14.73
2022-11-05T10:25:20.761Z,14.27
2022-11-05T10:27:53.880Z,15.30
2022-11-05T10:30:23.245Z,12.57
2022-11-05T10:32:55.510Z,13.48
2022-11-05T10:35:25.157Z,13.45
2022-11-05T10:37:54.883Z,12.77
2022-11-05T10:40:32.812Z,11.32
2022-11-05T10:43:07.169Z,12.02
2022-11-05T10:45:45.302Z,11.07
2022-11-05T10:48:44.296Z,15.50
2022-11-05T10:51:13.355Z,11.32
2022-11-05T10:53:51.490Z,11.85
2022-11-05T10:56:34.582Z,13.10
2022-11-05T10:59:09.406Z,12.63
2022-11-05T11:01:40.586Z,10.82
2022-11-05T11:04:17.458Z,11.13
2022-11-05T11:06:50.906Z,10.32
2022-11-05T11:09:24.232Z,10.13
2022-11-05T11:12:03.838Z,8.32
2022-11-05T11:14:32.668Z,7.13
2022-11-05T11:17:26.894Z,7.27
2022-11-05T11:20:22.186Z,6.67
2022-11-05T11:23:05.890Z,7.27
2022-11-05T11:25:45.780Z,6.83
2022-11-05T11:28:23.902Z,6.57
2022-11-05T11:30:58.860Z,7.50
2022-11-05T11:33:30.168Z,6.40
2022-11-05T11:35:59.133Z,6.70
2022-11-05T11:38:31.311Z,6.23
2022-11-05T11:41:18.949Z,6.40
2022-11-05T11:43:47.503Z,5.20
2022-11-05T11:46:18.160Z,5.93
2022-11-05T11:48:48.268Z,6.67
2022-11-05T11:51:20.089Z,5.83
2022-11-05T11:53:50.063Z,5.70
2022-11-05T11:56:21.258Z,5.47
2022-11-05T11:58:51.500Z,5.43
2022-11-05T12:01:52.881Z,5.70
2022-11-05T12:04:43.951Z,5.57
2022-11-05T12:07:27.793Z,5.90
2022-11-05T12:10:28.002Z,5.27
2022-11-05T12:13:28.506Z,5.97
2022-11-05T12:16:00.378Z,5.13
2022-11-05T12:18:36.834Z,5.37
2022-11-05T12:21:34.614Z,5.40
2022-11-05T12:24:30.723Z,5.87
2022-11-05T12:27:12.694Z,6.00
2022-11-05T12:29:53.258Z,6.10
2022-11-05T12:32:41.730Z,5.50
2022-11-05T12:35:24.232Z,4.90
2022-11-05T12:38:06.031Z,6.03
2022-11-05T12:40:53.116Z,5.17
2022-11-05T12:43:33.185Z,4.97
2022-11-05T12:46:14.771Z,4.73
2022-11-05T12:49:04.971Z,5.60
2022-11-05T12:51:48.466Z,5.10
2022-11-05T12:54:26.656Z,5.10
2022-11-05T12:56:59.663Z,5.73
2022-11-05T12:59:35.895Z,5.83
2022-11-05T13:02:26.882Z,5.30
2022-11-05T13:05:01.215Z,5.60
2022-11-05T13:07:33.134Z,5.80
2022-11-05T13:10:06.899Z,5.37
2022-11-05T13:12:40.133Z,5.60
2022-11-05T13:15:24.622Z,7.00
2022-11-05T13:18:01.062Z,6.70
2022-11-05T13:20:33.899Z,5.27
2022-11-05T13:23:07.241Z,4.93
2022-11-05T13:25:40.719Z,5.13
2022-11-05T13:28:19.790Z,5.50
2022-11-05T13:30:52.872Z,4.73
2022-11-05T13:33:26.825Z,4.53
2022-11-05T13:36:14.372Z,5.07
2022-11-05T13:39:03.549Z,4.60
2022-11-05T13:42:07.331Z,4.20
2022-11-05T13:44:59.537Z,4.73
2022-11-05T13:47:51.342Z,4.33
2022-11-05T13:50:53.254Z,4.27
2022-11-05T13:53:57.192Z,4.77
2022-11-05T13:56:44.212Z,4.77
2022-11-05T13:59:41.264Z,4.10
2022-11-05T14:02:19.298Z,4.20
2022-11-05T14:04:50.508Z,3.90
2022-11-05T14:07:23.881Z,4.30
2022-11-05T14:09:59.351Z,4.57
2022-11-05T14:12:30.753Z,4.50
2022-11-05T14:15:05.402Z,5.03
2022-11-05T14:17:36.579Z,4.73
2022-11-05T14:20:29.113Z,4.87
2022-11-05T14:23:30.808Z,4.47
2022-11-05T14:26:14.249Z,4.17
2022-11-05T14:28:46.965Z,4.43
2022-11-05T14:31:54.429Z,5.47
2022-11-05T14:34:25.363Z,4.67
2022-11-05T14:37:19.205Z,4.50
2022-11-05T14:39:49.524Z,4.40
2022-11-05T14:42:21.563Z,4.70
2022-11-05T14:44:59.564Z,4.30
2022-11-05T14:47:30.436Z,4.60
2022-11-05T14:50:03.877Z,4.33
2022-11-05T14:52:33.136Z,4.33
2022-11-05T14:55:03.858Z,4.30
2022-11-05T14:57:51.107Z,4.67
2022-11-05T15:00:42.326Z,4.00
2022-11-05T15:03:29.790Z,4.03
2022-11-05T15:06:06.682Z,3.60
2022-11-05T15:08:38.920Z,3.73
2022-11-05T15:11:21.520Z,4.03
2022-11-05T15:13:59.537Z,4.13
2022-11-05T15:16:32.929Z,3.80
2022-11-05T15:19:02.585Z,3.80
2022-11-05T15:21:35.525Z,3.97
2022-11-05T15:24:04.982Z,3.87
2022-11-05T15:26:46.635Z,3.87
2022-11-05T15:29:19.670Z,4.40
2022-11-05T15:31:48.260Z,4.13
2022-11-05T15:34:21.043Z,3.77
2022-11-05T15:36:52.000Z,3.87
2022-11-05T15:39:32.889Z,3.60
2022-11-05T15:42:05.916Z,3.93
2022-11-05T15:44:36.301Z,4.13
2022-11-05T15:47:12.339Z,3.87
2022-11-05T15:49:41.495Z,4.43
2022-11-05T15:52:13.201Z,4.57
2022-11-05T15:54:43.314Z,4.93
2022-11-05T15:57:30.112Z,7.83
2022-11-05T15:59:58.690Z,4.63
2022-11-05T16:02:31.808Z,3.90
2022-11-05T16:05:02.173Z,4.00
2022-11-05T16:07:31.007Z,4.73
2022-11-05T16:10:01.305Z,4.27
2022-11-05T16:12:35.611Z,3.67
2022-11-05T16:15:20.083Z,3.70
2022-11-05T16:17:52.403Z,4.27
2022-11-05T16:20:28.577Z,3.60
2022-11-05T16:22:59.041Z,4.03
2022-11-05T16:25:38.040Z,10.73
2022-11-05T16:28:20.511Z,4.40
2022-11-05T16:30:56.995Z,4.63
2022-11-05T16:33:27.430Z,11.27
2022-11-05T16:35:55.873Z,10.83
2022-11-05T16:38:24.723Z,9.83
2022-11-05T16:40:53.361Z,14.10
2022-11-05T16:43:24.816Z,7.77
2022-11-05T16:45:55.741Z,9.03
2022-11-05T16:48:24.210Z,6.40
2022-11-05T16:50:52.647Z,9.57
2022-11-05T16:53:21.065Z,6.83
2022-11-05T16:55:49.561Z,4.90
2022-11-05T16:58:23.604Z,4.73
2022-11-05T17:00:53.745Z,4.73
2022-11-05T17:03:22.165Z,4.33
2022-11-05T17:05:50.621Z,3.90
2022-11-05T17:08:19.126Z,3.93
2022-11-05T17:10:47.580Z,4.67
2022-11-05T17:13:17.139Z,4.30
2022-11-05T17:15:49.403Z,5.87
2022-11-05T17:18:19.148Z,4.60
2022-11-05T17:20:48.860Z,4.80
2022-11-05T17:23:19.477Z,5.27
2022-11-05T17:25:51.304Z,6.57
2022-11-05T17:28:20.667Z,4.17
2022-11-05T17:30:52.967Z,5.57
2022-11-05T17:33:23.144Z,6.70
2022-11-05T17:35:52.272Z,15.63
2022-11-05T17:38:20.896Z,6.97
2022-11-05T17:40:49.354Z,4.67
2022-11-05T17:43:18.472Z,3.80
2022-11-05T17:45:50.087Z,4.60
2022-11-05T17:48:18.807Z,4.23
2022-11-05T17:50:49.189Z,4.93
2022-11-05T17:53:19.800Z,4.63
2022-11-05T17:55:48.800Z,4.20
2022-11-05T17:58:17.536Z,4.53
2022-11-05T18:00:47.371Z,4.33
2022-11-05T18:03:17.288Z,4.27
2022-11-05T18:05:45.653Z,4.13
2022-11-05T18:08:14.031Z,4.07
2022-11-05T18:10:42.954Z,3.87
2022-11-05T18:13:12.463Z,4.50
2022-11-05T18:15:42.104Z,4.03
2022-11-05T18:18:10.852Z,4.10
2022-11-05T18:20:43.394Z,3.67
2022-11-05T18:23:12.110Z,3.50
2022-11-05T18:25:41.874Z,3.47
2022-11-05T18:28:10.997Z,3.80
2022-11-05T18:30:40.148Z,3.23
2022-11-05T18:33:09.151Z,3.70
2022-11-05T18:35:43.765Z,3.93
2022-11-05T18:38:12.236Z,4.10
2022-11-05T18:40:40.755Z,4.37
2022-11-05T18:43:09.994Z,4.40
2022-11-05T18:45:38.905Z,4.20
2022-11-05T18:48:08.112Z,4.70
2022-11-05T18:50:36.519Z,4.23
2022-11-05T18:53:06.363Z,4.83
2022-11-05T18:55:35.401Z,3.77
2022-11-05T18:58:04.280Z,4.00
2022-11-05T19:00:33.026Z,4.40
2022-11-05T19:03:02.691Z,4.27
2022-11-05T19:05:32.329Z,4.60
2022-11-05T19:08:00.837Z,5.20
2022-11-05T19:10:31.102Z,3.67
2022-11-05T19:12:59.491Z,4.03
2022-11-05T19:15:28.702Z,4.17
2022-11-05T19:17:57.148Z,4.73
2022-11-05T19:20:26.020Z,4.10
2022-11-05T19:22:54.589Z,4.40
2022-11-05T19:25:23.145Z,5.20
2022-11-05T19:27:52.607Z,4.50
2022-11-05T19:30:23.282Z,3.73
2022-11-05T19:32:51.682Z,4.40
2022-11-05T19:35:20.111Z,4.27
2022-11-05T19:37:50.344Z,4.77
2022-11-05T19:40:19.088Z,4.07
2022-11-05T19:42:48.153Z,4.30
2022-11-05T19:45:45.693Z,4.27
2022-11-05T19:48:08.204Z,4.33
2022-11-05T19:50:37.330Z,3.80
2022-11-05T19:53:06.893Z,4.00
2022-11-05T19:55:35.788Z,5.70
2022-11-05T19:58:04.557Z,4.70
2022-11-05T20:00:34.336Z,4.33
2022-11-05T20:03:03.150Z,4.23
2022-11-05T20:05:31.721Z,4.00
2022-11-05T20:08:00.447Z,4.00
2022-11-05T20:10:29.765Z,3.90
2022-11-05T20:12:58.707Z,3.70
2022-11-05T20:15:31.675Z,4.40
2022-11-05T20:18:01.629Z,4.07
2022-11-05T20:20:30.012Z,4.80
2022-11-05T20:22:58.846Z,4.17
2022-11-05T20:25:27.260Z,6.67
2022-11-05T20:28:00.040Z,6.50
2022-11-05T20:30:28.541Z,7.20
2022-11-05T20:32:57.648Z,4.83
2022-11-05T20:35:27.313Z,7.83
2022-11-05T20:37:55.802Z,5.10
2022-11-05T20:40:24.618Z,6.90
2022-11-05T20:42:53.934Z,6.40
2022-11-05T20:45:23.950Z,4.37
2022-11-05T20:47:52.781Z,4.47
2022-11-05T20:50:22.069Z,5.00
2022-11-05T20:52:52.537Z,5.47
2022-11-05T20:55:21.009Z,4.97
2022-11-05T20:57:49.464Z,5.03
2022-11-05T21:00:18.474Z,4.90
2022-11-05T21:02:47.119Z,4.90
2022-11-05T21:05:16.150Z,4.83
2022-11-05T21:07:45.256Z,5.20
2022-11-05T21:10:16.203Z,4.10
2022-11-05T21:12:44.905Z,4.97
2022-11-05T21:15:14.012Z,5.50
2022-11-05T21:17:42.707Z,5.73
2022-11-05T21:20:12.010Z,4.37
2022-11-05T21:22:43.198Z,5.83
2022-11-05T21:25:11.695Z,5.00
2022-11-05T21:27:43.858Z,4.60
2022-11-05T21:30:13.145Z,6.13
2022-11-05T21:32:41.779Z,5.80
2022-11-05T21:35:11.075Z,6.53
2022-11-05T21:37:41.631Z,5.40
2022-11-05T21:40:11.547Z,6.20
2022-11-05T21:42:41.230Z,6.10
2022-11-05T21:45:10.953Z,5.77
2022-11-05T21:47:39.540Z,5.40
2022-11-05T21:50:09.633Z,5.93
2022-11-05T21:52:56.583Z,5.27
2022-11-05T21:55:42.742Z,5.00
2022-11-05T21:58:33.881Z,4.93
2022-11-05T22:01:03.111Z,5.50
2022-11-05T22:03:32.597Z,4.83
2022-11-05T22:06:01.118Z,5.10
2022-11-05T22:08:29.933Z,5.17
2022-11-05T22:10:59.246Z,5.20
2022-11-05T22:13:30.320Z,5.17
2022-11-05T22:15:59.730Z,5.10
2022-11-05T22:18:28.586Z,5.03
2022-11-05T22:20:58.474Z,4.93
2022-11-05T22:23:27.825Z,4.67
2022-11-05T22:26:00.959Z,4.73
2022-11-05T22:28:32.467Z,4.67
2022-11-05T22:31:03.285Z,4.53
2022-11-05T22:33:32.943Z,5.43
2022-11-05T22:36:01.704Z,4.60
2022-11-05T22:38:31.689Z,5.40
2022-11-05T22:41:01.105Z,4.77
2022-11-05T22:43:29.511Z,4.77
2022-11-05T22:46:05.920Z,4.80
2022-11-05T22:48:34.449Z,4.73
2022-11-05T22:51:05.804Z,4.40
2022-11-05T22:53:36.504Z,4.67
2022-11-05T22:56:05.668Z,5.07
2022-11-05T22:58:35.067Z,6.73
2022-11-05T23:01:06.173Z,8.23
2022-11-05T23:03:35.203Z,5.03
2022-11-05T23:06:04.161Z,5.03
2022-11-05T23:08:55.736Z,4.57
2022-11-05T23:11:38.801Z,4.57
2022-11-05T23:14:08.789Z,4.87
2022-11-05T23:16:56.077Z,4.93
2022-11-05T23:19:42.528Z,5.07
2022-11-05T23:22:31.109Z,4.73
2022-11-05T23:24:59.757Z,4.00
2022-11-05T23:27:30.795Z,4.63
2022-11-05T23:30:00.252Z,5.43
2022-11-05T23:32:32.185Z,5.17
2022-11-05T23:35:00.776Z,4.80
2022-11-05T23:37:50.495Z,3.90
2022-11-05T23:40:19.895Z,4.50
2022-11-05T23:43:06.147Z,5.23
2022-11-05T23:45:51.934Z,4.70
2022-11-05T23:48:24.935Z,5.13
2022-11-05T23:50:55.461Z,5.90
2022-11-05T23:53:23.890Z,4.73
2022-11-05T23:55:52.640Z,4.70
2022-11-05T23:58:21.362Z,5.67
